sensor_id;sensor_type;location;lat;lon;timestamp;temperature;humidity
49829;DHT22;35723;51.194;5.112;2022-12-08T00:01:08;7.10;99.90
49829;DHT22;35723;51.194;5.112;2022-12-08T00:03:35;7.10;99.90
49829;DHT22;35723;51.194;5.112;2022-12-08T00:06:02;7.00;99.90
49829;DHT22;35723;51.194;5.112;2022-12-08T00:08:47;7.00;99.90
49829;DHT22;35723;51.194;5.112;2022-12-08T00:11:31;7.00;99.90
49829;DHT22;35723;51.194;5.112;2022-12-08T00:13:57;7.00;99.90
49829;DHT22;35723;51.194;5.112;2022-12-08T00:16:23;6.80;99.90
49829;DHT22;35723;51.194;5.112;2022-12-08T00:18:49;6.90;99.90
49829;DHT22;35723;51.194;5.112;2022-12-08T00:21:14;6.90;99.90
49829;DHT22;35723;51.194;5.112;2022-12-08T00:23:40;6.80;99.90
49829;DHT22;35723;51.194;5.112;2022-12-08T00:26:06;6.80;99.90
49829;DHT22;35723;51.194;5.112;2022-12-08T00:28:32;6.90;99.90
49829;DHT22;35723;51.194;5.112;2022-12-08T00:30:58;6.90;99.90
49829;DHT22;35723;51.194;5.112;2022-12-08T00:33:26;6.90;99.90
49829;DHT22;35723;51.194;5.112;2022-12-08T00:35:52;6.80;99.90
49829;DHT22;35723;51.194;5.112;2022-12-08T00:38:18;6.80;99.90
49829;DHT22;35723;51.194;5.112;2022-12-08T00:40:47;6.80;99.90
49829;DHT22;35723;51.194;5.112;2022-12-08T00:43:13;6.80;99.90
49829;DHT22;35723;51.194;5.112;2022-12-08T00:45:39;6.80;99.90
49829;DHT22;35723;51.194;5.112;2022-12-08T00:48:05;6.70;99.90
49829;DHT22;35723;51.194;5.112;2022-12-08T00:50:31;6.70;99.90
49829;DHT22;35723;51.194;5.112;2022-12-08T00:52:56;6.80;99.90
49829;DHT22;35723;51.194;5.112;2022-12-08T00:55:22;6.70;99.90
49829;DHT22;35723;51.194;5.112;2022-12-08T00:57:47;6.80;99.90
49829;DHT22;35723;51.194;5.112;2022-12-08T01:00:13;6.90;99.90
49829;DHT22;35723;51.194;5.112;2022-12-08T01:02:41;6.90;99.90
49829;DHT22;35723;51.194;5.112;2022-12-08T01:05:07;6.80;99.90
49829;DHT22;35723;51.194;5.112;2022-12-08T01:07:32;6.90;99.90
49829;DHT22;35723;51.194;5.112;2022-12-08T01:09:58;6.80;99.90
49829;DHT22;35723;51.194;5.112;2022-12-08T01:12:24;6.80;99.90
49829;DHT22;35723;51.194;5.112;2022-12-08T01:14:50;6.80;99.90
49829;DHT22;35723;51.194;5.112;2022-12-08T01:17:15;6.90;99.90
49829;DHT22;35723;51.194;5.112;2022-12-08T01:19:41;7.00;99.90
49829;DHT22;35723;51.194;5.112;2022-12-08T01:22:07;7.00;99.90
49829;DHT22;35723;51.194;5.112;2022-12-08T01:24:32;6.90;99.90
49829;DHT22;35723;51.194;5.112;2022-12-08T01:26:58;6.80;99.90
49829;DHT22;35723;51.194;5.112;2022-12-08T01:29:25;6.80;99.90
49829;DHT22;35723;51.194;5.112;2022-12-08T01:31:50;6.80;99.90
49829;DHT22;35723;51.194;5.112;2022-12-08T01:34:16;6.70;99.90
49829;DHT22;35723;51.194;5.112;2022-12-08T01:36:41;6.80;99.90
49829;DHT22;35723;51.194;5.112;2022-12-08T01:39:13;6.80;99.90
49829;DHT22;35723;51.194;5.112;2022-12-08T01:41:40;6.80;99.90
49829;DHT22;35723;51.194;5.112;2022-12-08T01:46:34;7.00;99.90
49829;DHT22;35723;51.194;5.112;2022-12-08T01:49:04;6.90;99.90
49829;DHT22;35723;51.194;5.112;2022-12-08T01:51:35;6.90;99.90
49829;DHT22;35723;51.194;5.112;2022-12-08T01:54:04;6.90;99.90
49829;DHT22;35723;51.194;5.112;2022-12-08T02:03:16;6.60;99.90
49829;DHT22;35723;51.194;5.112;2022-12-08T02:05:43;6.60;99.90
49829;DHT22;35723;51.194;5.112;2022-12-08T02:08:11;6.60;99.90
49829;DHT22;35723;51.194;5.112;2022-12-08T02:10:40;6.60;99.90
49829;DHT22;35723;51.194;5.112;2022-12-08T02:13:09;6.70;99.90
49829;DHT22;35723;51.194;5.112;2022-12-08T02:16:07;6.80;99.90
49829;DHT22;35723;51.194;5.112;2022-12-08T02:28:12;6.90;99.90
49829;DHT22;35723;51.194;5.112;2022-12-08T02:58:29;6.70;99.90
49829;DHT22;35723;51.194;5.112;2022-12-08T03:04:57;6.80;99.90
49829;DHT22;35723;51.194;5.112;2022-12-08T03:14:39;6.70;99.90
49829;DHT22;35723;51.194;5.112;2022-12-08T03:24:35;6.60;99.90
49829;DHT22;35723;51.194;5.112;2022-12-08T03:34:24;6.60;99.90
49829;DHT22;35723;51.194;5.112;2022-12-08T04:42:11;6.30;99.90
49829;DHT22;35723;51.194;5.112;2022-12-08T04:45:02;6.40;99.90
49829;DHT22;35723;51.194;5.112;2022-12-08T05:18:01;6.20;99.90
49829;DHT22;35723;51.194;5.112;2022-12-08T13:36:27;6.80;99.90
49829;DHT22;35723;51.194;5.112;2022-12-08T13:38:57;6.50;99.90
49829;DHT22;35723;51.194;5.112;2022-12-08T15:19:40;6.40;99.90
49829;DHT22;35723;51.194;5.112;2022-12-08T15:22:20;6.50;99.90
49829;DHT22;35723;51.194;5.112;2022-12-08T15:28:16;6.50;99.90
49829;DHT22;35723;51.194;5.112;2022-12-08T15:30:42;6.50;99.90
49829;DHT22;35723;51.194;5.112;2022-12-08T15:43:48;6.60;99.90
49829;DHT22;35723;51.194;5.112;2022-12-08T17:35:06;6.10;99.90
49829;DHT22;35723;51.194;5.112;2022-12-08T19:19:17;5.80;99.90
49829;DHT22;35723;51.194;5.112;2022-12-08T20:24:03;5.20;99.90
49829;DHT22;35723;51.194;5.112;2022-12-08T20:26:29;5.20;99.90
49829;DHT22;35723;51.194;5.112;2022-12-08T20:29:00;5.10;99.90
49829;DHT22;35723;51.194;5.112;2022-12-08T20:35:03;5.30;99.90
49829;DHT22;35723;51.194;5.112;2022-12-08T20:41:14;5.30;99.90
49829;DHT22;35723;51.194;5.112;2022-12-08T21:43:15;5.00;99.90
49829;DHT22;35723;51.194;5.112;2022-12-08T21:45:40;5.00;99.90
49829;DHT22;35723;51.194;5.112;2022-12-08T21:48:06;5.00;99.90
49829;DHT22;35723;51.194;5.112;2022-12-08T22:18:29;5.00;99.90
49829;DHT22;35723;51.194;5.112;2022-12-08T22:31:19;4.80;99.90
49829;DHT22;35723;51.194;5.112;2022-12-08T22:40:46;4.90;99.90
